Valle Azzurra — ICEG — position and weather

sailwx.info

Track history (hours):
 
Tides and Currents Weather Stations Pressure Air Temp Water Temp Dewpoint Dewpoint Depression Visibility Wind Speed Wind Dir Waves Ship Positions

Valle Azzurra

Last reported at 2015-Aug-18 01:23 UTC. Time now 2015-Aug-29 03:09 UTC.
Position N 25°39' W 079°30'.
Warning: this ship's position is 11 days out of date.

Length 183 m; draft 10.9 m.

Type: Tanker. MMSI: 247226600.

Date/timePositionNaut miles runAvg speedWind from/ knotsBaromVisibWave heightAir tempDewpointWater temp
2015-Aug-18 01:23N 25°39' W 079°30'910.9
2015-Aug-18 00:31N 25°48' W 079°27'1211.3
2015-Aug-17 23:26N 25°60' W 079°22'1111.4
2015-Aug-17 22:31N 26°08' W 079°15'  
2015-Aug-09 19:07N 40°42' W 030°19'813.6
2015-Aug-09 18:33N 40°45' W 030°09'1313.4
2015-Aug-09 17:33N 40°50' W 029°53'1313.4
2015-Aug-09 16:34N 40°54' W 029°36'1313.3
2015-Aug-09 15:33N 40°59' W 029°20'1313.4
2015-Aug-09 14:33N 41°04' W 029°03'1313.4
2015-Aug-09 13:33N 41°09' W 028°46'1313.4
2015-Aug-09 12:33N 41°13' W 028°30'1313.0
2015-Aug-09 11:33N 41°18' W 028°14'1313.2
2015-Aug-09 10:33N 41°23' W 027°57'1312.8
2015-Aug-09 09:33N 41°28' W 027°41'1212.4
2015-Aug-09 08:33N 41°32' W 027°26'1212.4
2015-Aug-09 07:33N 41°39' W 027°12'1312.6
2015-Aug-09 06:33N 41°44' W 026°57'1413.2
2015-Aug-09 05:30N 41°51' W 026°41'2813.4
2015-Aug-09 03:25N 42°04' W 026°08'1213.7
2015-Aug-09 02:33N 42°09' W 025°53'1414.1
2015-Aug-09 01:33N 42°15' W 025°36'1414.0
2015-Aug-09 00:33N 42°22' W 025°19'1614.0
2015-Aug-08 23:25N 42°29' W 025°00'1413.5
2015-Aug-08 22:24N 42°35' W 024°43'12313.2
2015-Aug-08 13:06N 43°31' W 022°14'713.1
2015-Aug-08 12:33N 43°34' W 022°05'  
Track history (hours):
 
Tides and Currents Weather Stations Pressure Air Temp Water Temp Dewpoint Dewpoint Depression Visibility Wind Speed Wind Dir Waves Ship Positions

Valle Azzurra

Last reported at 2015-Aug-18 01:23 UTC. Time now 2015-Aug-29 03:09 UTC.
Position N 25°39' W 079°30'.
Warning: this ship's position is 11 days out of date.

Length 183 m; draft 10.9 m.

Type: Tanker. MMSI: 247226600.

Date/timePositionNaut miles runAvg speedWind from/ knotsBaromVisibWave heightAir tempDewpointWater temp
2015-Aug-18 01:23N 25°39' W 079°30'910.9
2015-Aug-18 00:31N 25°48' W 079°27'1211.3
2015-Aug-17 23:26N 25°60' W 079°22'1111.4
2015-Aug-17 22:31N 26°08' W 079°15'  
2015-Aug-09 19:07N 40°42' W 030°19'813.6
2015-Aug-09 18:33N 40°45' W 030°09'1313.4
2015-Aug-09 17:33N 40°50' W 029°53'1313.4
2015-Aug-09 16:34N 40°54' W 029°36'1313.3
2015-Aug-09 15:33N 40°59' W 029°20'1313.4
2015-Aug-09 14:33N 41°04' W 029°03'1313.4
2015-Aug-09 13:33N 41°09' W 028°46'1313.4
2015-Aug-09 12:33N 41°13' W 028°30'1313.0
2015-Aug-09 11:33N 41°18' W 028°14'1313.2
2015-Aug-09 10:33N 41°23' W 027°57'1312.8
2015-Aug-09 09:33N 41°28' W 027°41'1212.4
2015-Aug-09 08:33N 41°32' W 027°26'1212.4
2015-Aug-09 07:33N 41°39' W 027°12'1312.6
2015-Aug-09 06:33N 41°44' W 026°57'1413.2
2015-Aug-09 05:30N 41°51' W 026°41'2813.4
2015-Aug-09 03:25N 42°04' W 026°08'1213.7
2015-Aug-09 02:33N 42°09' W 025°53'1414.1
2015-Aug-09 01:33N 42°15' W 025°36'1414.0
2015-Aug-09 00:33N 42°22' W 025°19'1614.0
2015-Aug-08 23:25N 42°29' W 025°00'1413.5
2015-Aug-08 22:24N 42°35' W 024°43'12313.2
2015-Aug-08 13:06N 43°31' W 022°14'713.1
2015-Aug-08 12:33N 43°34' W 022°05'  

Dump ship's entire track history